sensor_id;sensor_type;location;lat;lon;timestamp;pressure;altitude;pressure_sealevel;temperature;humidity
79309;BME280;68767;53.078;7.386;2023-07-24T00:01:03;100496.41;;;16.80;100.00
79309;BME280;68767;53.078;7.386;2023-07-24T00:03:30;100492.19;;;16.82;100.00
79309;BME280;68767;53.078;7.386;2023-07-24T00:05:58;100479.28;;;16.76;100.00
79309;BME280;68767;53.078;7.386;2023-07-24T00:08:26;100484.34;;;16.77;100.00
79309;BME280;68767;53.078;7.386;2023-07-24T00:10:53;100483.81;;;16.68;100.00
79309;BME280;68767;53.078;7.386;2023-07-24T00:13:20;100485.41;;;16.69;100.00
79309;BME280;68767;53.078;7.386;2023-07-24T00:15:46;100482.25;;;16.67;100.00
79309;BME280;68767;53.078;7.386;2023-07-24T00:18:13;100483.41;;;16.66;100.00
79309;BME280;68767;53.078;7.386;2023-07-24T00:20:40;100482.63;;;16.66;100.00
79309;BME280;68767;53.078;7.386;2023-07-24T00:23:07;100480.31;;;16.68;100.00
79309;BME280;68767;53.078;7.386;2023-07-24T00:25:34;100481.63;;;16.77;100.00
79309;BME280;68767;53.078;7.386;2023-07-24T00:28:01;100483.25;;;16.82;100.00
79309;BME280;68767;53.078;7.386;2023-07-24T00:30:28;100496.88;;;16.85;100.00
79309;BME280;68767;53.078;7.386;2023-07-24T00:32:55;100477.88;;;16.85;100.00
79309;BME280;68767;53.078;7.386;2023-07-24T00:35:22;100474.06;;;16.90;100.00
79309;BME280;68767;53.078;7.386;2023-07-24T00:37:49;100477.50;;;16.87;100.00
79309;BME280;68767;53.078;7.386;2023-07-24T00:40:16;100481.16;;;16.98;100.00
79309;BME280;68767;53.078;7.386;2023-07-24T00:42:47;100476.09;;;16.97;100.00
79309;BME280;68767;53.078;7.386;2023-07-24T00:45:15;100479.59;;;16.97;100.00
79309;BME280;68767;53.078;7.386;2023-07-24T00:47:44;100470.66;;;16.97;100.00
79309;BME280;68767;53.078;7.386;2023-07-24T00:50:12;100472.13;;;16.91;100.00
79309;BME280;68767;53.078;7.386;2023-07-24T00:52:40;100476.38;;;16.88;100.00
79309;BME280;68767;53.078;7.386;2023-07-24T00:55:09;100475.94;;;16.86;100.00
79309;BME280;68767;53.078;7.386;2023-07-24T00:57:40;100480.22;;;16.87;100.00
79309;BME280;68767;53.078;7.386;2023-07-24T01:00:07;100479.44;;;16.87;100.00
79309;BME280;68767;53.078;7.386;2023-07-24T01:02:35;100475.91;;;16.82;100.00
79309;BME280;68767;53.078;7.386;2023-07-24T01:05:02;100473.56;;;16.81;100.00
79309;BME280;68767;53.078;7.386;2023-07-24T01:07:29;100463.47;;;16.81;100.00
79309;BME280;68767;53.078;7.386;2023-07-24T01:09:56;100470.38;;;16.75;100.00
79309;BME280;68767;53.078;7.386;2023-07-24T01:12:36;100482.69;;;16.69;100.00
79309;BME280;68767;53.078;7.386;2023-07-24T01:15:13;100478.38;;;16.68;100.00
79309;BME280;68767;53.078;7.386;2023-07-24T01:17:46;100478.38;;;16.68;100.00
79309;BME280;68767;53.078;7.386;2023-07-24T01:20:16;100477.66;;;16.71;100.00
79309;BME280;68767;53.078;7.386;2023-07-24T01:22:57;100467.13;;;16.66;100.00
79309;BME280;68767;53.078;7.386;2023-07-24T01:25:35;100465.13;;;16.63;100.00
79309;BME280;68767;53.078;7.386;2023-07-24T01:28:07;100467.91;;;16.67;100.00
79309;BME280;68767;53.078;7.386;2023-07-24T01:30:35;100467.13;;;16.66;100.00
79309;BME280;68767;53.078;7.386;2023-07-24T01:33:02;100469.47;;;16.68;100.00
79309;BME280;68767;53.078;7.386;2023-07-24T01:35:29;100456.94;;;16.60;100.00
79309;BME280;68767;53.078;7.386;2023-07-24T01:37:57;100460.78;;;16.55;100.00
79309;BME280;68767;53.078;7.386;2023-07-24T01:40:24;100456.06;;;16.52;100.00
79309;BME280;68767;53.078;7.386;2023-07-24T01:42:51;100452.94;;;16.50;100.00
79309;BME280;68767;53.078;7.386;2023-07-24T01:45:18;100457.22;;;16.51;100.00
79309;BME280;68767;53.078;7.386;2023-07-24T01:47:46;100444.34;;;16.44;100.00
79309;BME280;68767;53.078;7.386;2023-07-24T01:50:13;100447.00;;;16.41;100.00
79309;BME280;68767;53.078;7.386;2023-07-24T01:52:39;100446.50;;;16.32;100.00
79309;BME280;68767;53.078;7.386;2023-07-24T01:55:07;100447.56;;;16.27;100.00
79309;BME280;68767;53.078;7.386;2023-07-24T01:57:33;100457.63;;;16.26;100.00
79309;BME280;68767;53.078;7.386;2023-07-24T02:00:00;100445.19;;;16.22;100.00
79309;BME280;68767;53.078;7.386;2023-07-24T02:02:27;100452.97;;;16.23;100.00
79309;BME280;68767;53.078;7.386;2023-07-24T02:04:54;100439.66;;;16.15;100.00
79309;BME280;68767;53.078;7.386;2023-07-24T02:07:22;100445.00;;;16.11;100.00
79309;BME280;68767;53.078;7.386;2023-07-24T02:09:49;100436.50;;;16.13;100.00
79309;BME280;68767;53.078;7.386;2023-07-24T02:12:16;100443.69;;;16.01;100.00
79309;BME280;68767;53.078;7.386;2023-07-24T02:14:43;100433.72;;;16.06;100.00
79309;BME280;68767;53.078;7.386;2023-07-24T02:17:10;100429.34;;;15.97;100.00
79309;BME280;68767;53.078;7.386;2023-07-24T02:19:37;100416.59;;;16.01;100.00
79309;BME280;68767;53.078;7.386;2023-07-24T02:22:05;100422.06;;;16.05;100.00
79309;BME280;68767;53.078;7.386;2023-07-24T02:24:34;100416.13;;;15.96;100.00
79309;BME280;68767;53.078;7.386;2023-07-24T02:27:01;100406.38;;;15.91;100.00
79309;BME280;68767;53.078;7.386;2023-07-24T02:29:30;100407.06;;;15.85;100.00
79309;BME280;68767;53.078;7.386;2023-07-24T02:31:58;100407.84;;;15.85;100.00
79309;BME280;68767;53.078;7.386;2023-07-24T02:34:25;100407.91;;;15.89;100.00
79309;BME280;68767;53.078;7.386;2023-07-24T02:36:54;100412.59;;;15.92;100.00
79309;BME280;68767;53.078;7.386;2023-07-24T02:39:21;100413.75;;;15.91;100.00
79309;BME280;68767;53.078;7.386;2023-07-24T02:41:48;100414.94;;;15.93;100.00
79309;BME280;68767;53.078;7.386;2023-07-24T02:44:16;100408.34;;;15.94;100.00
79309;BME280;68767;53.078;7.386;2023-07-24T02:46:43;100406.03;;;15.93;100.00
79309;BME280;68767;53.078;7.386;2023-07-24T02:49:13;100416.19;;;15.99;100.00
79309;BME280;68767;53.078;7.386;2023-07-24T02:51:40;100414.97;;;15.97;100.00
79309;BME280;68767;53.078;7.386;2023-07-24T02:54:07;100418.56;;;16.05;100.00
79309;BME280;68767;53.078;7.386;2023-07-24T02:56:34;100419.28;;;15.98;100.00
79309;BME280;68767;53.078;7.386;2023-07-24T02:59:01;100411.84;;;15.95;100.00
79309;BME280;68767;53.078;7.386;2023-07-24T03:01:27;100411.81;;;15.91;100.00
79309;BME280;68767;53.078;7.386;2023-07-24T03:03:54;100409.09;;;15.91;100.00
79309;BME280;68767;53.078;7.386;2023-07-24T03:06:21;100412.88;;;15.87;100.00
79309;BME280;68767;53.078;7.386;2023-07-24T03:08:48;100416.91;;;15.96;100.00
79309;BME280;68767;53.078;7.386;2023-07-24T03:11:15;100416.06;;;15.92;100.00
79309;BME280;68767;53.078;7.386;2023-07-24T03:13:42;100416.13;;;15.96;100.00
79309;BME280;68767;53.078;7.386;2023-07-24T03:16:09;100413.06;;;15.97;100.00
79309;BME280;68767;53.078;7.386;2023-07-24T03:18:36;100413.53;;;16.03;100.00
79309;BME280;68767;53.078;7.386;2023-07-24T03:21:03;100412.25;;;15.97;100.00
79309;BME280;68767;53.078;7.386;2023-07-24T03:23:30;100420.88;;;16.02;100.00
79309;BME280;68767;53.078;7.386;2023-07-24T03:25:57;100415.03;;;16.00;100.00
79309;BME280;68767;53.078;7.386;2023-07-24T03:28:24;100415.09;;;16.04;100.00
79309;BME280;68767;53.078;7.386;2023-07-24T03:30:52;100421.28;;;16.05;100.00
79309;BME280;68767;53.078;7.386;2023-07-24T03:33:20;100423.16;;;16.00;100.00
79309;BME280;68767;53.078;7.386;2023-07-24T03:35:47;100412.63;;;15.95;100.00
79309;BME280;68767;53.078;7.386;2023-07-24T03:38:14;100420.75;;;15.95;100.00
79309;BME280;68767;53.078;7.386;2023-07-24T03:40:41;100419.03;;;15.84;100.00
79309;BME280;68767;53.078;7.386;2023-07-24T03:43:08;100410.75;;;15.73;100.00
79309;BME280;68767;53.078;7.386;2023-07-24T03:45:36;100409.22;;;15.76;100.00
79309;BME280;68767;53.078;7.386;2023-07-24T03:48:04;100411.19;;;15.79;100.00
79309;BME280;68767;53.078;7.386;2023-07-24T03:50:31;100416.16;;;15.73;100.00
79309;BME280;68767;53.078;7.386;2023-07-24T03:52:58;100411.16;;;15.75;100.00
79309;BME280;68767;53.078;7.386;2023-07-24T03:55:25;100408.63;;;15.86;100.00
79309;BME280;68767;53.078;7.386;2023-07-24T03:57:52;100413.13;;;15.78;100.00
79309;BME280;68767;53.078;7.386;2023-07-24T04:00:19;100409.59;;;15.74;100.00
79309;BME280;68767;53.078;7.386;2023-07-24T04:02:47;100410.78;;;15.77;100.00
79309;BME280;68767;53.078;7.386;2023-07-24T04:05:14;100403.44;;;15.77;100.00
79309;BME280;68767;53.078;7.386;2023-07-24T04:07:41;100412.22;;;15.70;100.00
79309;BME280;68767;53.078;7.386;2023-07-24T04:10:08;100409.28;;;15.79;100.00
79309;BME280;68767;53.078;7.386;2023-07-24T04:12:35;100406.94;;;15.78;100.00
79309;BME280;68767;53.078;7.386;2023-07-24T04:15:02;100389.16;;;15.80;100.00
79309;BME280;68767;53.078;7.386;2023-07-24T04:17:29;100381.28;;;15.71;100.00
79309;BME280;68767;53.078;7.386;2023-07-24T04:19:56;100391.94;;;15.84;100.00
79309;BME280;68767;53.078;7.386;2023-07-24T04:22:23;100399.28;;;15.83;100.00
79309;BME280;68767;53.078;7.386;2023-07-24T04:24:50;100401.34;;;15.90;100.00
79309;BME280;68767;53.078;7.386;2023-07-24T04:27:17;100397.53;;;15.94;100.00
79309;BME280;68767;53.078;7.386;2023-07-24T04:29:44;100388.13;;;15.88;100.00
79309;BME280;68767;53.078;7.386;2023-07-24T04:32:10;100381.09;;;15.84;100.00
79309;BME280;68767;53.078;7.386;2023-07-24T04:34:37;100389.34;;;15.91;100.00
79309;BME280;68767;53.078;7.386;2023-07-24T04:37:05;100382.38;;;15.90;100.00
79309;BME280;68767;53.078;7.386;2023-07-24T04:39:32;100380.91;;;15.96;100.00
79309;BME280;68767;53.078;7.386;2023-07-24T04:42:00;100378.19;;;15.96;100.00
79309;BME280;68767;53.078;7.386;2023-07-24T04:44:27;100371.31;;;16.02;100.00
79309;BME280;68767;53.078;7.386;2023-07-24T04:46:53;100377.94;;;16.05;100.00
79309;BME280;68767;53.078;7.386;2023-07-24T04:49:22;100378.78;;;16.09;100.00
79309;BME280;68767;53.078;7.386;2023-07-24T04:51:49;100389.63;;;16.09;100.00
79309;BME280;68767;53.078;7.386;2023-07-24T04:54:17;100401.19;;;16.06;100.00
79309;BME280;68767;53.078;7.386;2023-07-24T04:56:44;100397.75;;;16.09;100.00
79309;BME280;68767;53.078;7.386;2023-07-24T04:59:11;100386.16;;;16.12;100.00
79309;BME280;68767;53.078;7.386;2023-07-24T05:01:37;100376.06;;;16.09;100.00
79309;BME280;68767;53.078;7.386;2023-07-24T05:04:05;100368.75;;;16.13;100.00
79309;BME280;68767;53.078;7.386;2023-07-24T05:06:32;100357.97;;;16.16;100.00
79309;BME280;68767;53.078;7.386;2023-07-24T05:08:58;100352.94;;;16.15;100.00
79309;BME280;68767;53.078;7.386;2023-07-24T05:11:25;100352.59;;;16.20;100.00
79309;BME280;68767;53.078;7.386;2023-07-24T05:13:52;100357.25;;;16.19;100.00
79309;BME280;68767;53.078;7.386;2023-07-24T05:16:19;100363.06;;;16.21;100.00
79309;BME280;68767;53.078;7.386;2023-07-24T05:18:46;100363.72;;;16.11;100.00
79309;BME280;68767;53.078;7.386;2023-07-24T05:21:13;100358.00;;;16.20;100.00
79309;BME280;68767;53.078;7.386;2023-07-24T05:23:40;100357.59;;;16.18;100.00
79309;BME280;68767;53.078;7.386;2023-07-24T05:26:07;100352.97;;;16.18;100.00
79309;BME280;68767;53.078;7.386;2023-07-24T05:28:34;100351.41;;;16.17;100.00
79309;BME280;68767;53.078;7.386;2023-07-24T05:31:02;100355.00;;;16.25;100.00
79309;BME280;68767;53.078;7.386;2023-07-24T05:33:30;100352.69;;;16.27;100.00
79309;BME280;68767;53.078;7.386;2023-07-24T05:36:02;100355.81;;;16.29;100.00
79309;BME280;68767;53.078;7.386;2023-07-24T05:38:29;100350.47;;;16.33;100.00
79309;BME280;68767;53.078;7.386;2023-07-24T05:40:57;100347.53;;;16.18;100.00
79309;BME280;68767;53.078;7.386;2023-07-24T05:43:24;100353.09;;;16.29;100.00
79309;BME280;68767;53.078;7.386;2023-07-24T05:45:52;100336.94;;;16.36;100.00
79309;BME280;68767;53.078;7.386;2023-07-24T05:48:19;100333.84;;;16.38;100.00
79309;BME280;68767;53.078;7.386;2023-07-24T05:50:47;100347.06;;;16.39;100.00
79309;BME280;68767;53.078;7.386;2023-07-24T05:53:14;100352.41;;;16.36;100.00
79309;BME280;68767;53.078;7.386;2023-07-24T05:55:42;100353.25;;;16.40;100.00
79309;BME280;68767;53.078;7.386;2023-07-24T05:58:10;100365.19;;;16.35;100.00
79309;BME280;68767;53.078;7.386;2023-07-24T06:00:37;100368.41;;;16.44;100.00
79309;BME280;68767;53.078;7.386;2023-07-24T06:03:04;100380.78;;;16.42;100.00
79309;BME280;68767;53.078;7.386;2023-07-24T06:05:34;100380.81;;;16.45;100.00
79309;BME280;68767;53.078;7.386;2023-07-24T06:08:01;100367.25;;;16.45;100.00
79309;BME280;68767;53.078;7.386;2023-07-24T06:10:28;100374.00;;;16.55;100.00
79309;BME280;68767;53.078;7.386;2023-07-24T06:12:55;100379.81;;;16.57;100.00
79309;BME280;68767;53.078;7.386;2023-07-24T06:15:22;100377.50;;;16.55;100.00
79309;BME280;68767;53.078;7.386;2023-07-24T06:17:49;100378.94;;;16.49;100.00
79309;BME280;68767;53.078;7.386;2023-07-24T06:20:20;100378.66;;;16.58;100.00
79309;BME280;68767;53.078;7.386;2023-07-24T06:22:47;100381.38;;;16.58;100.00
79309;BME280;68767;53.078;7.386;2023-07-24T06:25:14;100379.41;;;16.55;100.00
79309;BME280;68767;53.078;7.386;2023-07-24T06:27:40;100386.06;;;16.61;100.00
79309;BME280;68767;53.078;7.386;2023-07-24T06:30:07;100380.31;;;16.66;100.00
79309;BME280;68767;53.078;7.386;2023-07-24T06:32:42;100371.78;;;16.64;100.00
79309;BME280;68767;53.078;7.386;2023-07-24T06:35:09;100381.84;;;16.64;100.00
79309;BME280;68767;53.078;7.386;2023-07-24T06:37:36;100368.38;;;16.71;100.00
79309;BME280;68767;53.078;7.386;2023-07-24T06:40:03;100376.28;;;16.83;100.00
79309;BME280;68767;53.078;7.386;2023-07-24T06:42:30;100372.03;;;16.85;100.00
79309;BME280;68767;53.078;7.386;2023-07-24T06:44:57;100372.59;;;16.98;100.00
79309;BME280;68767;53.078;7.386;2023-07-24T06:47:25;100378.66;;;17.22;100.00
79309;BME280;68767;53.078;7.386;2023-07-24T06:49:52;100361.84;;;17.09;100.00
79309;BME280;68767;53.078;7.386;2023-07-24T06:52:19;100373.09;;;17.11;100.00
79309;BME280;68767;53.078;7.386;2023-07-24T06:54:45;100371.88;;;17.05;100.00
79309;BME280;68767;53.078;7.386;2023-07-24T06:57:13;100369.13;;;17.01;100.00
79309;BME280;68767;53.078;7.386;2023-07-24T06:59:40;100368.41;;;17.08;100.00
79309;BME280;68767;53.078;7.386;2023-07-24T07:02:07;100369.22;;;17.12;100.00
79309;BME280;68767;53.078;7.386;2023-07-24T07:04:34;100365.00;;;17.15;100.00
79309;BME280;68767;53.078;7.386;2023-07-24T07:07:01;100371.63;;;17.21;100.00
79309;BME280;68767;53.078;7.386;2023-07-24T07:09:28;100368.50;;;17.15;100.00
79309;BME280;68767;53.078;7.386;2023-07-24T07:11:55;100370.84;;;17.20;100.00
79309;BME280;68767;53.078;7.386;2023-07-24T07:14:22;100368.44;;;17.11;100.00
79309;BME280;68767;53.078;7.386;2023-07-24T07:16:49;100365.94;;;17.33;100.00
79309;BME280;68767;53.078;7.386;2023-07-24T07:19:16;100375.94;;;17.69;100.00
79309;BME280;68767;53.078;7.386;2023-07-24T07:21:42;100361.06;;;17.97;100.00
79309;BME280;68767;53.078;7.386;2023-07-24T07:24:09;100365.06;;;18.17;100.00
79309;BME280;68767;53.078;7.386;2023-07-24T07:26:36;100357.34;;;18.23;100.00
79309;BME280;68767;53.078;7.386;2023-07-24T07:29:03;100362.25;;;18.03;100.00
79309;BME280;68767;53.078;7.386;2023-07-24T07:31:30;100367.09;;;18.31;100.00
79309;BME280;68767;53.078;7.386;2023-07-24T07:33:57;100354.72;;;18.48;100.00
79309;BME280;68767;53.078;7.386;2023-07-24T07:36:24;100365.63;;;18.51;100.00
79309;BME280;68767;53.078;7.386;2023-07-24T07:38:51;100348.63;;;18.69;100.00
79309;BME280;68767;53.078;7.386;2023-07-24T07:41:17;100347.09;;;18.86;100.00
79309;BME280;68767;53.078;7.386;2023-07-24T07:43:44;100348.31;;;18.99;100.00
79309;BME280;68767;53.078;7.386;2023-07-24T07:46:11;100345.25;;;19.22;100.00
79309;BME280;68767;53.078;7.386;2023-07-24T07:48:38;100352.66;;;19.32;100.00
79309;BME280;68767;53.078;7.386;2023-07-24T07:51:05;100353.81;;;19.34;100.00
79309;BME280;68767;53.078;7.386;2023-07-24T07:53:34;100353.38;;;19.11;100.00
79309;BME280;68767;53.078;7.386;2023-07-24T07:56:01;100352.59;;;18.96;100.00
79309;BME280;68767;53.078;7.386;2023-07-24T07:58:28;100349.06;;;18.89;100.00
79309;BME280;68767;53.078;7.386;2023-07-24T08:00:55;100338.59;;;19.08;100.00
79309;BME280;68767;53.078;7.386;2023-07-24T08:03:22;100347.56;;;19.16;100.00
79309;BME280;68767;53.078;7.386;2023-07-24T08:05:49;100353.03;;;19.13;100.00
79309;BME280;68767;53.078;7.386;2023-07-24T08:08:16;100348.75;;;19.12;100.00
79309;BME280;68767;53.078;7.386;2023-07-24T08:10:43;100354.50;;;18.85;100.00
79309;BME280;68767;53.078;7.386;2023-07-24T08:13:10;100349.78;;;18.68;100.00
79309;BME280;68767;53.078;7.386;2023-07-24T08:15:37;100350.94;;;18.67;100.00
79309;BME280;68767;53.078;7.386;2023-07-24T08:18:05;100357.56;;;18.66;100.00
79309;BME280;68767;53.078;7.386;2023-07-24T08:20:37;100354.41;;;18.64;100.00
79309;BME280;68767;53.078;7.386;2023-07-24T08:23:05;100348.25;;;18.77;100.00
79309;BME280;68767;53.078;7.386;2023-07-24T08:25:32;100343.16;;;18.69;100.00
79309;BME280;68767;53.078;7.386;2023-07-24T08:27:59;100350.50;;;18.61;100.00
79309;BME280;68767;53.078;7.386;2023-07-24T08:30:33;100354.00;;;18.58;100.00
79309;BME280;68767;53.078;7.386;2023-07-24T08:33:01;100350.84;;;18.49;100.00
79309;BME280;68767;53.078;7.386;2023-07-24T08:35:28;100350.84;;;18.52;100.00
79309;BME280;68767;53.078;7.386;2023-07-24T08:37:55;100344.75;;;18.77;100.00
79309;BME280;68767;53.078;7.386;2023-07-24T08:40:22;100336.66;;;19.09;100.00
79309;BME280;68767;53.078;7.386;2023-07-24T08:42:50;100332.00;;;19.27;100.00
79309;BME280;68767;53.078;7.386;2023-07-24T08:45:17;100326.16;;;19.36;100.00
79309;BME280;68767;53.078;7.386;2023-07-24T08:47:45;100325.41;;;19.32;100.00
79309;BME280;68767;53.078;7.386;2023-07-24T08:50:13;100319.94;;;19.11;100.00
79309;BME280;68767;53.078;7.386;2023-07-24T08:52:42;100314.91;;;19.30;100.00
79309;BME280;68767;53.078;7.386;2023-07-24T08:55:10;100314.13;;;19.58;100.00
79309;BME280;68767;53.078;7.386;2023-07-24T08:57:37;100316.78;;;20.01;100.00
79309;BME280;68767;53.078;7.386;2023-07-24T09:00:05;100319.91;;;20.07;100.00
79309;BME280;68767;53.078;7.386;2023-07-24T09:02:35;100327.31;;;20.06;100.00
79309;BME280;68767;53.078;7.386;2023-07-24T09:05:03;100311.66;;;20.25;100.00
79309;BME280;68767;53.078;7.386;2023-07-24T09:07:30;100313.34;;;20.85;100.00
79309;BME280;68767;53.078;7.386;2023-07-24T09:09:58;100315.63;;;21.52;100.00
79309;BME280;68767;53.078;7.386;2023-07-24T09:12:25;100307.16;;;21.81;100.00
79309;BME280;68767;53.078;7.386;2023-07-24T09:15:06;100306.13;;;21.64;100.00
79309;BME280;68767;53.078;7.386;2023-07-24T09:17:33;100318.72;;;21.02;100.00
79309;BME280;68767;53.078;7.386;2023-07-24T09:20:01;100311.84;;;20.76;100.00
79309;BME280;68767;53.078;7.386;2023-07-24T09:22:29;100319.22;;;20.83;100.00
79309;BME280;68767;53.078;7.386;2023-07-24T09:24:57;100313.88;;;20.62;100.00
79309;BME280;68767;53.078;7.386;2023-07-24T09:27:27;100320.97;;;20.45;100.00
79309;BME280;68767;53.078;7.386;2023-07-24T09:29:57;100328.59;;;20.82;100.00
79309;BME280;68767;53.078;7.386;2023-07-24T09:32:27;100318.03;;;20.84;100.00
79309;BME280;68767;53.078;7.386;2023-07-24T09:34:54;100307.81;;;20.99;100.00
79309;BME280;68767;53.078;7.386;2023-07-24T09:37:30;100305.78;;;21.10;100.00
79309;BME280;68767;53.078;7.386;2023-07-24T09:39:58;100308.31;;;20.80;100.00
79309;BME280;68767;53.078;7.386;2023-07-24T09:42:34;100315.53;;;20.38;100.00
79309;BME280;68767;53.078;7.386;2023-07-24T09:45:18;100312.53;;;19.93;100.00
79309;BME280;68767;53.078;7.386;2023-07-24T09:47:49;100299.34;;;19.67;100.00
79309;BME280;68767;53.078;7.386;2023-07-24T09:50:24;100297.41;;;19.53;100.00
79309;BME280;68767;53.078;7.386;2023-07-24T09:52:52;100300.84;;;19.92;100.00
79309;BME280;68767;53.078;7.386;2023-07-24T09:55:22;100309.25;;;20.41;100.00
79309;BME280;68767;53.078;7.386;2023-07-24T09:57:53;100309.97;;;20.63;100.00
79309;BME280;68767;53.078;7.386;2023-07-24T10:00:21;100312.91;;;20.93;100.00
79309;BME280;68767;53.078;7.386;2023-07-24T10:02:48;100307.06;;;20.95;100.00
79309;BME280;68767;53.078;7.386;2023-07-24T10:05:15;100297.47;;;21.28;100.00
79309;BME280;68767;53.078;7.386;2023-07-24T10:07:44;100291.09;;;21.42;100.00
79309;BME280;68767;53.078;7.386;2023-07-24T10:10:12;100303.84;;;21.59;100.00
79309;BME280;68767;53.078;7.386;2023-07-24T10:12:39;100301.06;;;21.63;100.00
79309;BME280;68767;53.078;7.386;2023-07-24T10:15:07;100289.47;;;21.89;100.00
79309;BME280;68767;53.078;7.386;2023-07-24T10:17:39;100288.16;;;22.01;100.00
79309;BME280;68767;53.078;7.386;2023-07-24T10:20:08;100289.88;;;22.25;100.00
79309;BME280;68767;53.078;7.386;2023-07-24T10:22:42;100294.75;;;22.10;100.00
79309;BME280;68767;53.078;7.386;2023-07-24T10:25:10;100281.06;;;22.07;100.00
79309;BME280;68767;53.078;7.386;2023-07-24T10:27:45;100274.19;;;21.92;100.00
79309;BME280;68767;53.078;7.386;2023-07-24T10:30:13;100286.28;;;21.56;100.00
79309;BME280;68767;53.078;7.386;2023-07-24T10:33:11;100278.28;;;21.76;100.00
79309;BME280;68767;53.078;7.386;2023-07-24T10:38:10;100259.56;;;22.43;100.00
79309;BME280;68767;53.078;7.386;2023-07-24T10:40:37;100261.28;;;22.30;100.00
79309;BME280;68767;53.078;7.386;2023-07-24T10:43:05;100258.78;;;22.08;100.00
79309;BME280;68767;53.078;7.386;2023-07-24T10:45:53;100252.28;;;21.57;100.00
79309;BME280;68767;53.078;7.386;2023-07-24T10:48:23;100248.94;;;21.80;100.00
79309;BME280;68767;53.078;7.386;2023-07-24T10:50:51;100250.75;;;21.56;100.00
79309;BME280;68767;53.078;7.386;2023-07-24T10:53:21;100261.50;;;21.37;100.00
79309;BME280;68767;53.078;7.386;2023-07-24T10:55:50;100260.09;;;21.59;100.00
79309;BME280;68767;53.078;7.386;2023-07-24T10:58:18;100255.13;;;22.22;100.00
79309;BME280;68767;53.078;7.386;2023-07-24T11:00:45;100254.25;;;22.86;100.00
79309;BME280;68767;53.078;7.386;2023-07-24T11:03:14;100250.41;;;22.53;100.00
79309;BME280;68767;53.078;7.386;2023-07-24T11:05:45;100263.16;;;22.36;100.00
79309;BME280;68767;53.078;7.386;2023-07-24T11:08:14;100253.22;;;21.81;100.00
79309;BME280;68767;53.078;7.386;2023-07-24T11:10:49;100275.13;;;21.40;100.00
79309;BME280;68767;53.078;7.386;2023-07-24T11:13:21;100262.75;;;21.66;100.00
79309;BME280;68767;53.078;7.386;2023-07-24T11:15:49;100258.28;;;22.21;100.00
79309;BME280;68767;53.078;7.386;2023-07-24T11:18:16;100258.47;;;23.18;100.00
79309;BME280;68767;53.078;7.386;2023-07-24T11:20:44;100250.50;;;23.23;100.00
79309;BME280;68767;53.078;7.386;2023-07-24T11:23:12;100249.50;;;23.37;100.00
79309;BME280;68767;53.078;7.386;2023-07-24T11:28:07;100237.28;;;23.85;100.00
79309;BME280;68767;53.078;7.386;2023-07-24T11:30:35;100237.94;;;24.29;100.00
79309;BME280;68767;53.078;7.386;2023-07-24T11:33:04;100236.56;;;24.21;99.21
79309;BME280;68767;53.078;7.386;2023-07-24T11:35:31;100224.63;;;24.47;97.75
79309;BME280;68767;53.078;7.386;2023-07-24T11:37:59;100220.44;;;25.40;99.33
79309;BME280;68767;53.078;7.386;2023-07-24T11:40:39;100223.59;;;25.84;92.57
79309;BME280;68767;53.078;7.386;2023-07-24T11:43:21;100220.13;;;25.51;89.80
79309;BME280;68767;53.078;7.386;2023-07-24T11:45:49;100218.66;;;25.17;93.30
79309;BME280;68767;53.078;7.386;2023-07-24T11:48:22;100230.25;;;24.60;100.00
79309;BME280;68767;53.078;7.386;2023-07-24T11:50:54;100238.84;;;24.94;95.77
79309;BME280;68767;53.078;7.386;2023-07-24T11:53:27;100226.19;;;24.28;98.19
79309;BME280;68767;53.078;7.386;2023-07-24T11:55:56;100221.81;;;24.31;100.00
79309;BME280;68767;53.078;7.386;2023-07-24T11:58:26;100218.09;;;23.85;100.00
79309;BME280;68767;53.078;7.386;2023-07-24T12:00:54;100215.91;;;23.76;98.73
79309;BME280;68767;53.078;7.386;2023-07-24T12:03:24;100224.47;;;23.35;100.00
79309;BME280;68767;53.078;7.386;2023-07-24T12:05:52;100224.69;;;23.01;100.00
79309;BME280;68767;53.078;7.386;2023-07-24T12:08:35;100216.63;;;22.90;100.00
79309;BME280;68767;53.078;7.386;2023-07-24T12:11:16;100211.75;;;23.02;100.00
79309;BME280;68767;53.078;7.386;2023-07-24T12:13:44;100213.06;;;22.93;100.00
79309;BME280;68767;53.078;7.386;2023-07-24T12:16:11;100222.28;;;23.03;100.00
79309;BME280;68767;53.078;7.386;2023-07-24T12:18:38;100221.34;;;23.13;100.00
79309;BME280;68767;53.078;7.386;2023-07-24T12:21:05;100213.63;;;23.28;100.00
79309;BME280;68767;53.078;7.386;2023-07-24T12:23:32;100209.25;;;23.54;100.00
79309;BME280;68767;53.078;7.386;2023-07-24T12:25:59;100217.94;;;23.29;100.00
79309;BME280;68767;53.078;7.386;2023-07-24T12:28:26;100219.19;;;23.01;100.00
79309;BME280;68767;53.078;7.386;2023-07-24T12:30:52;100212.13;;;22.77;100.00
79309;BME280;68767;53.078;7.386;2023-07-24T12:33:19;100214.75;;;22.57;100.00
79309;BME280;68767;53.078;7.386;2023-07-24T12:35:51;100210.38;;;22.36;100.00
79309;BME280;68767;53.078;7.386;2023-07-24T12:38:18;100202.72;;;22.51;100.00
79309;BME280;68767;53.078;7.386;2023-07-24T12:40:45;100192.41;;;22.62;100.00
79309;BME280;68767;53.078;7.386;2023-07-24T12:43:14;100193.16;;;22.89;100.00
79309;BME280;68767;53.078;7.386;2023-07-24T12:45:41;100197.84;;;22.89;100.00
79309;BME280;68767;53.078;7.386;2023-07-24T12:48:08;100196.84;;;23.26;100.00
79309;BME280;68767;53.078;7.386;2023-07-24T12:50:35;100190.00;;;22.91;100.00